Time;durP1;ratioP1;P1;durP2;ratioP2;P2;SDS_P1;SDS_P2;PMS_P1;PMS_P2;Temp;Humidity;BMP_temperature;BMP_pressure;BME280_temperature;BME280_humidity;BME280_pressure;Samples;Min_cycle;Max_cycle;Signal;HPM_P1;HPM_P2
2022/05/28 00:04:21;;;;;;;3.58;2.58;;;;;;;;;;10275379;28;20048;-60
2022/05/28 00:09:21;;;;;;;3.22;2.45;;;;;;;;;;10274890;28;20049;-60
2022/05/28 00:14:19;;;;;;;3.80;2.30;;;;;;;;;;10274825;28;20058;-60
2022/05/28 00:19:17;;;;;;;6.63;2.60;;;;;;;;;;10274714;28;20048;-60
2022/05/28 00:24:16;;;;;;;6.05;2.45;;;;;;;;;;10279344;28;20084;-61
2022/05/28 00:29:15;;;;;;;4.25;2.47;;;;;;;;;;10282202;28;20431;-60
2022/05/28 00:34:14;;;;;;;4.97;2.63;;;;;;;;;;10282003;28;20132;-60
2022/05/28 00:39:12;;;;;;;3.22;2.42;;;;;;;;;;10282866;28;20084;-61
2022/05/28 00:44:12;;;;;;;2.60;2.35;;;;;;;;;;10281598;28;20072;-60
2022/05/28 00:49:16;;;;;;;5.10;2.30;;;;;;;;;;10281397;28;20060;-61
2022/05/28 00:54:14;;;;;;;;;;;;;;;;;;10281727;28;20041;-60
2022/05/28 00:59:12;;;;;;;2.72;2.13;;;;;;;;;;10281557;28;19921;-61
2022/05/28 01:04:18;;;;;;;4.22;2.72;;;;;;;;;;10281398;28;20080;-60
2022/05/28 01:09:20;;;;;;;4.03;2.53;;;;;;;;;;10280780;28;20052;-60
2022/05/28 01:14:21;;;;;;;3.17;2.60;;;;;;;;;;10280876;28;20053;-60
2022/05/28 01:19:28;;;;;;;7.15;2.92;;;;;;;;;;10280065;28;20052;-60
2022/05/28 01:24:28;;;;;;;2.95;2.65;;;;;;;;;;10280239;28;20103;-60
2022/05/28 01:29:30;;;;;;;3.28;2.78;;;;;;;;;;10280172;28;20057;-60
2022/05/28 01:34:30;;;;;;;3.58;2.50;;;;;;;;;;10280346;28;20048;-60
2022/05/28 01:39:28;;;;;;;2.72;2.33;;;;;;;;;;10280257;28;20052;-60
2022/05/28 01:44:27;;;;;;;2.47;2.28;;;;;;;;;;10279243;28;20344;-60
2022/05/28 01:49:29;;;;;;;3.65;2.97;;;;;;;;;;10279655;28;20080;-60
2022/05/28 01:54:28;;;;;;;2.85;2.42;;;;;;;;;;10279409;28;20080;-60
2022/05/28 01:59:29;;;;;;;5.63;2.83;;;;;;;;;;10279003;28;20048;-60
2022/05/28 02:04:29;;;;;;;4.07;2.83;;;;;;;;;;10278816;28;20088;-60
2022/05/28 02:09:30;;;;;;;4.13;2.80;;;;;;;;;;10279141;28;20091;-60
2022/05/28 02:14:31;;;;;;;5.63;3.08;;;;;;;;;;10277936;28;20052;-61
2022/05/28 02:19:36;;;;;;;3.30;2.60;;;;;;;;;;10278003;28;20041;-60
2022/05/28 02:24:36;;;;;;;4.13;3.25;;;;;;;;;;10278014;28;20461;-60
2022/05/28 02:29:35;;;;;;;5.05;2.88;;;;;;;;;;10278039;28;20084;-60
2022/05/28 02:34:34;;;;;;;4.20;2.75;;;;;;;;;;10277722;28;20100;-60
2022/05/28 02:39:32;;;;;;;5.90;3.03;;;;;;;;;;10277831;28;20048;-60
2022/05/28 02:44:31;;;;;;;5.28;2.63;;;;;;;;;;10276448;28;20096;-60
2022/05/28 02:49:29;;;;;;;3.33;2.40;;;;;;;;;;10277382;28;20049;-60
2022/05/28 02:54:29;;;;;;;3.10;2.80;;;;;;;;;;10276809;28;20391;-60
2022/05/28 02:59:27;;;;;;;4.22;3.22;;;;;;;;;;10277056;28;20049;-61
2022/05/28 03:04:25;;;;;;;3.20;2.83;;;;;;;;;;10276275;28;20481;-61
2022/05/28 03:09:24;;;;;;;3.78;3.33;;;;;;;;;;10276388;28;20061;-61
2022/05/28 03:14:24;;;;;;;4.63;2.92;;;;;;;;;;10276534;28;20450;-60
2022/05/28 03:19:22;;;;;;;3.00;2.70;;;;;;;;;;10276635;28;20525;-60
2022/05/28 03:24:20;;;;;;;3.13;2.83;;;;;;;;;;10275997;28;20103;-61
2022/05/28 03:29:19;;;;;;;4.03;3.10;;;;;;;;;;10275956;28;20077;-60
2022/05/28 03:34:18;;;;;;;8.75;3.17;;;;;;;;;;10275802;28;20068;-60
2022/05/28 03:39:17;;;;;;;4.80;2.83;;;;;;;;;;10275478;28;20041;-60
2022/05/28 03:44:15;;;;;;;3.67;3.10;;;;;;;;;;10275414;28;20305;-60
2022/05/28 03:49:17;;;;;;;3.40;2.90;;;;;;;;;;10275177;28;20056;-60
2022/05/28 03:54:17;;;;;;;4.93;3.22;;;;;;;;;;10275319;28;20049;-60
2022/05/28 03:59:15;;;;;;;4.50;3.47;;;;;;;;;;10281689;28;20049;-60
2022/05/28 04:04:13;;;;;;;5.85;3.60;;;;;;;;;;10283119;28;20072;-60
2022/05/28 04:09:11;;;;;;;7.07;3.88;;;;;;;;;;10282701;28;20033;-61
2022/05/28 04:14:11;;;;;;;3.95;2.80;;;;;;;;;;10283013;28;20052;-60
2022/05/28 04:19:10;;;;;;;11.98;3.90;;;;;;;;;;10282481;28;20060;-60
2022/05/28 04:24:09;;;;;;;9.05;3.78;;;;;;;;;;10282405;28;20045;-61
2022/05/28 04:29:07;;;;;;;5.63;3.80;;;;;;;;;;10282461;28;20099;-61
2022/05/28 04:34:07;;;;;;;10.70;6.65;;;;;;;;;;10282054;28;20053;-61
2022/05/28 04:39:05;;;;;;;12.77;5.88;;;;;;;;;;10281576;28;20048;-61
2022/05/28 04:44:03;;;;;;;3.78;3.13;;;;;;;;;;10282541;28;20040;-60
2022/05/28 04:49:02;;;;;;;7.65;3.75;;;;;;;;;;10281233;28;20086;-60
2022/05/28 04:54:01;;;;;;;5.07;4.43;;;;;;;;;;10281874;28;20076;-61
2022/05/28 04:59:00;;;;;;;6.22;4.30;;;;;;;;;;10280931;28;20060;-60
2022/05/28 05:03:58;;;;;;;4.57;4.13;;;;;;;;;;10281455;28;20080;-60
2022/05/28 05:08:57;;;;;;;6.72;5.72;;;;;;;;;;10279605;28;20091;-61
2022/05/28 05:13:56;;;;;;;7.28;6.57;;;;;;;;;;10280247;28;20478;-61
2022/05/28 05:18:55;;;;;;;18.90;16.67;;;;;;;;;;10280137;28;20447;-60
2022/05/28 05:23:53;;;;;;;12.82;7.13;;;;;;;;;;10280087;28;20392;-61
2022/05/28 05:28:51;;;;;;;6.60;3.70;;;;;;;;;;10279663;28;20473;-61
2022/05/28 05:33:51;;;;;;;9.60;6.90;;;;;;;;;;10279490;28;20041;-60
2022/05/28 05:38:49;;;;;;;8.93;6.07;;;;;;;;;;10280130;28;20088;-60
2022/05/28 05:43:49;;;;;;;18.80;16.80;;;;;;;;;;10273416;28;20523;-60
2022/05/28 05:48:47;;;;;;;8.75;7.15;;;;;;;;;;10239401;28;20077;-61
2022/05/28 05:53:47;;;;;;;12.77;7.07;;;;;;;;;;10277444;28;20081;-62
2022/05/28 05:58:45;;;;;;;10.45;6.68;;;;;;;;;;10267990;28;20473;-60
2022/05/28 06:03:48;;;;;;;10.80;7.35;;;;;;;;;;10257948;28;20095;-62
2022/05/28 06:08:48;;;;;;;10.75;9.23;;;;;;;;;;10276519;28;20408;-62
2022/05/28 06:13:46;;;;;;;14.13;11.10;;;;;;;;;;10278305;28;20049;-61
2022/05/28 06:18:44;;;;;;;9.68;5.28;;;;;;;;;;10273620;28;20076;-62
2022/05/28 06:23:43;;;;;;;8.70;6.03;;;;;;;;;;10272831;28;20095;-61
2022/05/28 06:28:43;;;;;;;7.68;4.10;;;;;;;;;;10274132;28;20121;-61
2022/05/28 06:33:41;;;;;;;7.75;4.00;;;;;;;;;;10273248;28;20069;-61
2022/05/28 06:38:40;;;;;;;10.00;4.82;;;;;;;;;;10272883;28;20068;-62
2022/05/28 06:43:38;;;;;;;15.02;9.50;;;;;;;;;;10269876;28;20084;-61
2022/05/28 06:48:38;;;;;;;8.50;6.22;;;;;;;;;;10272530;28;20083;-62
2022/05/28 06:53:37;;;;;;;19.05;17.08;;;;;;;;;;10273008;28;20084;-62
2022/05/28 06:58:36;;;;;;;15.80;12.40;;;;;;;;;;10275939;28;20053;-62
2022/05/28 07:03:35;;;;;;;6.55;4.40;;;;;;;;;;10275959;28;20080;-61
2022/05/28 07:08:35;;;;;;;8.02;5.40;;;;;;;;;;10275932;28;20083;-61
2022/05/28 07:13:34;;;;;;;20.42;17.30;;;;;;;;;;10274774;28;20076;-61
2022/05/28 07:18:32;;;;;;;8.43;4.45;;;;;;;;;;10275573;28;20041;-61
2022/05/28 07:23:31;;;;;;;14.02;5.57;;;;;;;;;;10275558;28;20041;-61
2022/05/28 07:28:32;;;;;;;10.20;6.38;;;;;;;;;;10275399;28;20092;-62
2022/05/28 07:33:32;;;;;;;18.33;5.20;;;;;;;;;;10275424;28;20048;-62
2022/05/28 07:38:31;;;;;;;28.67;5.78;;;;;;;;;;10275278;28;20095;-61
2022/05/28 07:43:31;;;;;;;266.13;37.17;;;;;;;;;;10275464;28;20060;-62
2022/05/28 07:48:29;;;;;;;28.73;4.70;;;;;;;;;;10275016;28;20088;-62
2022/05/28 07:53:27;;;;;;;8.27;5.60;;;;;;;;;;10275223;28;20518;-62
2022/05/28 07:58:26;;;;;;;12.20;5.07;;;;;;;;;;10260199;28;20459;-62
2022/05/28 08:03:25;;;;;;;3.40;2.70;;;;;;;;;;10247550;28;20053;-62
2022/05/28 08:08:25;;;;;;;16.67;4.50;;;;;;;;;;10242101;28;20065;-62
2022/05/28 08:13:24;;;;;;;8.18;2.85;;;;;;;;;;10257233;28;20045;-62
2022/05/28 08:18:24;;;;;;;11.00;3.53;;;;;;;;;;10264707;28;20507;-62
2022/05/28 08:23:24;;;;;;;4.97;3.20;;;;;;;;;;10242887;28;20049;-62
2022/05/28 08:28:22;;;;;;;10.20;3.75;;;;;;;;;;10239591;28;20084;-61
2022/05/28 08:33:21;;;;;;;5.15;3.78;;;;;;;;;;10264368;28;20080;-62
2022/05/28 08:38:20;;;;;;;5.43;3.20;;;;;;;;;;10271691;28;20127;-62
2022/05/28 08:43:20;;;;;;;4.95;3.00;;;;;;;;;;10275762;28;20053;-62
2022/05/28 08:48:20;;;;;;;3.88;3.05;;;;;;;;;;10274522;28;20068;-62
2022/05/28 08:53:21;;;;;;;5.22;3.38;;;;;;;;;;10278620;28;20056;-62
2022/05/28 08:58:22;;;;;;;6.88;3.63;;;;;;;;;;10277898;28;20060;-62
2022/05/28 09:03:23;;;;;;;8.20;3.58;;;;;;;;;;10277707;28;20052;-62
2022/05/28 09:08:25;;;;;;;8.18;3.97;;;;;;;;;;10277833;28;20084;-62
2022/05/28 09:13:29;;;;;;;7.65;3.47;;;;;;;;;;10280567;28;20502;-62
2022/05/28 09:18:31;;;;;;;5.60;3.83;;;;;;;;;;10260872;28;20049;-62
2022/05/28 09:23:30;;;;;;;7.57;3.00;;;;;;;;;;10278712;28;20068;-62
2022/05/28 09:28:37;;;;;;;4.88;3.42;;;;;;;;;;10279661;28;20463;-62
2022/05/28 09:33:45;;;;;;;5.50;3.70;;;;;;;;;;10269042;28;20470;-62
2022/05/28 09:38:55;;;;;;;7.55;4.32;;;;;;;;;;10263544;28;20064;-62
2022/05/28 09:44:00;;;;;;;5.20;3.30;;;;;;;;;;10260308;28;20069;-62
2022/05/28 09:49:00;;;;;;;3.17;2.63;;;;;;;;;;10275027;28;20506;-62
2022/05/28 09:59:23;;;;;;;5.40;3.25;;;;;;;;;;10265385;28;20069;-62
2022/05/28 10:04:31;;;;;;;4.70;2.80;;;;;;;;;;10237985;28;20073;-62
2022/05/28 10:09:30;;;;;;;6.22;2.15;;;;;;;;;;10266060;28;20084;-62
2022/05/28 10:14:31;;;;;;;3.70;2.53;;;;;;;;;;10277574;28;20442;-62
2022/05/28 10:19:35;;;;;;;2.65;2.20;;;;;;;;;;10270710;28;20443;-62
2022/05/28 10:24:41;;;;;;;8.60;2.88;;;;;;;;;;10277041;28;20044;-62
2022/05/28 10:29:48;;;;;;;3.50;2.20;;;;;;;;;;10277384;28;20092;-62
2022/05/28 10:34:46;;;;;;;;;;;;;;;;;;10277793;28;20088;-62
2022/05/28 10:39:44;;;;;;;8.38;2.40;;;;;;;;;;10277328;28;19920;-62
2022/05/28 10:44:44;;;;;;;4.35;2.25;;;;;;;;;;10276982;28;20041;-62
2022/05/28 10:49:47;;;;;;;4.20;2.90;;;;;;;;;;10277099;28;20083;-62
2022/05/28 10:54:51;;;;;;;3.47;2.45;;;;;;;;;;10277090;28;20049;-62
2022/05/28 11:00:01;;;;;;;6.70;2.55;;;;;;;;;;10276272;28;20057;-62
2022/05/28 11:05:04;;;;;;;8.07;2.67;;;;;;;;;;10276751;28;20045;-62
2022/05/28 11:10:20;;;;;;;3.95;2.75;;;;;;;;;;10276564;28;20084;-62
2022/05/28 11:15:30;;;;;;;8.35;2.50;;;;;;;;;;10263669;28;20158;-62
2022/05/28 11:20:37;;;;;;;7.18;3.28;;;;;;;;;;10276102;28;20048;-62
2022/05/28 11:25:42;;;;;;;3.72;3.08;;;;;;;;;;10249847;28;20072;-62
2022/05/28 11:30:43;;;;;;;5.28;2.47;;;;;;;;;;10234944;28;20585;-62
2022/05/28 11:35:43;;;;;;;6.70;2.88;;;;;;;;;;10235390;28;20049;-62
2022/05/28 11:40:49;;;;;;;4.22;2.53;;;;;;;;;;10234985;28;20045;-62
2022/05/28 11:45:51;;;;;;;11.20;2.95;;;;;;;;;;10254860;28;20045;-62
2022/05/28 11:56:11;;;;;;;4.65;2.90;;;;;;;;;;10235113;28;20107;-62
2022/05/28 12:01:12;;;;;;;4.18;2.55;;;;;;;;;;10255087;28;20072;-60
2022/05/28 12:06:18;;;;;;;3.67;2.88;;;;;;;;;;10270340;28;20053;-62
2022/05/28 12:11:32;;;;;;;3.88;2.92;;;;;;;;;;10274563;28;20091;-62
2022/05/28 12:16:33;;;;;;;9.90;3.23;;;;;;;;;;10249711;28;20077;-62
2022/05/28 12:21:32;;;;;;;4.95;2.35;;;;;;;;;;10241497;28;20056;-62
2022/05/28 12:26:47;;;;;;;5.80;2.95;;;;;;;;;;10269272;28;20060;-62
2022/05/28 12:31:47;;;;;;;11.00;3.67;;;;;;;;;;10275798;28;20068;-62
2022/05/28 12:36:48;;;;;;;3.67;2.70;;;;;;;;;;10280821;28;20076;-62
2022/05/28 12:41:54;;;;;;;6.55;5.68;;;;;;;;;;10268013;28;20084;-63
2022/05/28 12:46:55;;;;;;;7.47;3.45;;;;;;;;;;10275046;28;20063;-63
2022/05/28 12:52:08;;;;;;;8.20;3.30;;;;;;;;;;10264828;28;20524;-63
2022/05/28 12:57:08;;;;;;;5.47;2.92;;;;;;;;;;10275960;28;20076;-62
2022/05/28 13:02:22;;;;;;;9.02;3.30;;;;;;;;;;10280677;28;20413;-62
2022/05/28 13:07:20;;;;;;;;;;;;;;;;;;10281039;28;20041;-62
2022/05/28 13:12:20;;;;;;;3.83;2.92;;;;;;;;;;10281077;28;19947;-63
2022/05/28 13:17:35;;;;;;;5.20;2.40;;;;;;;;;;10280865;28;20046;-63
2022/05/28 13:22:42;;;;;;;6.18;3.08;;;;;;;;;;10277512;28;20068;-62
2022/05/28 13:27:58;;;;;;;12.38;4.45;;;;;;;;;;10276987;28;20088;-63
2022/05/28 13:33:01;;;;;;;9.05;3.88;;;;;;;;;;10275838;28;20080;-63
2022/05/28 13:38:00;;;;;;;4.45;3.08;;;;;;;;;;10280165;28;20052;-63
2022/05/28 13:43:00;;;;;;;18.02;6.15;;;;;;;;;;10280625;28;20057;-63
2022/05/28 13:48:04;;;;;;;14.02;4.93;;;;;;;;;;10278417;28;20053;-62
2022/05/28 13:53:03;;;;;;;14.95;6.47;;;;;;;;;;10279630;28;20060;-62
2022/05/28 13:58:01;;;;;;;18.30;5.97;;;;;;;;;;10279998;28;20222;-62
2022/05/28 14:03:01;;;;;;;76.80;23.67;;;;;;;;;;10279975;28;20056;-63
2022/05/28 14:08:03;;;;;;;27.58;8.82;;;;;;;;;;10279231;28;20045;-63
2022/05/28 14:13:02;;;;;;;51.00;15.30;;;;;;;;;;10278857;28;20052;-62
2022/05/28 14:18:00;;;;;;;23.52;8.60;;;;;;;;;;10279175;28;20434;-63
2022/05/28 14:22:59;;;;;;;12.80;4.60;;;;;;;;;;10278672;28;20053;-63
2022/05/28 14:28:00;;;;;;;22.95;9.32;;;;;;;;;;10278281;28;20067;-62
2022/05/28 14:32:58;;;;;;;21.10;10.43;;;;;;;;;;10277484;28;20084;-62
2022/05/28 14:38:00;;;;;;;15.43;9.82;;;;;;;;;;10278304;28;20045;-62
2022/05/28 14:43:00;;;;;;;9.88;6.93;;;;;;;;;;10277525;28;20071;-63
2022/05/28 14:48:01;;;;;;;16.48;6.07;;;;;;;;;;10277868;28;20498;-63
2022/05/28 14:53:00;;;;;;;11.57;6.70;;;;;;;;;;10277671;28;20566;-63
2022/05/28 14:58:04;;;;;;;10.32;5.10;;;;;;;;;;10277776;28;20438;-62
2022/05/28 15:03:09;;;;;;;10.02;4.15;;;;;;;;;;10277099;28;20107;-62
2022/05/28 15:08:08;;;;;;;8.23;4.20;;;;;;;;;;10277192;28;20040;-62
2022/05/28 15:13:14;;;;;;;10.65;4.70;;;;;;;;;;10277195;28;20080;-62
2022/05/28 15:18:13;;;;;;;13.95;4.63;;;;;;;;;;10276784;28;20049;-62
2022/05/28 15:23:11;;;;;;;8.82;4.38;;;;;;;;;;10276823;28;20476;-62
2022/05/28 15:28:10;;;;;;;13.95;5.90;;;;;;;;;;10276651;28;20056;-62
2022/05/28 15:33:11;;;;;;;8.13;4.68;;;;;;;;;;10276523;28;20080;-62
2022/05/28 15:38:11;;;;;;;9.60;4.65;;;;;;;;;;10276484;28;20319;-62
2022/05/28 15:43:09;;;;;;;9.77;4.35;;;;;;;;;;10276186;28;20467;-62
2022/05/28 15:48:12;;;;;;;11.70;5.10;;;;;;;;;;10276009;28;20056;-62
2022/05/28 15:53:10;;;;;;;12.57;6.00;;;;;;;;;;10279094;28;20076;-62
2022/05/28 15:58:13;;;;;;;13.48;4.80;;;;;;;;;;10284628;28;20053;-62
2022/05/28 16:03:13;;;;;;;14.10;6.40;;;;;;;;;;10284243;28;20041;-61
2022/05/28 16:08:22;;;;;;;25.55;16.33;;;;;;;;;;10283898;28;20050;-62
2022/05/28 16:13:20;;;;;;;28.40;16.23;;;;;;;;;;10282802;28;20087;-62
2022/05/28 16:18:22;;;;;;;26.35;16.30;;;;;;;;;;10284093;28;20541;-62
2022/05/28 16:23:21;;;;;;;32.78;26.13;;;;;;;;;;10283247;28;20056;-62
2022/05/28 16:28:19;;;;;;;23.58;13.75;;;;;;;;;;10282406;28;20087;-62
2022/05/28 16:33:17;;;;;;;22.80;10.57;;;;;;;;;;10282824;28;20132;-63
2022/05/28 16:38:17;;;;;;;18.25;10.70;;;;;;;;;;10282837;28;20502;-62
2022/05/28 16:43:15;;;;;;;24.20;8.10;;;;;;;;;;10282710;28;20427;-62
2022/05/28 16:48:13;;;;;;;17.67;13.27;;;;;;;;;;10282481;28;20099;-62
2022/05/28 16:53:12;;;;;;;16.38;6.82;;;;;;;;;;10282245;28;20506;-62
2022/05/28 16:58:13;;;;;;;13.77;7.38;;;;;;;;;;10282274;28;20049;-62
2022/05/28 17:03:11;;;;;;;14.93;7.45;;;;;;;;;;10278966;28;20417;-62
2022/05/28 17:08:09;;;;;;;20.48;12.07;;;;;;;;;;10281372;28;20049;-62
2022/05/28 17:13:12;;;;;;;15.80;8.73;;;;;;;;;;10278490;28;20068;-62
2022/05/28 17:18:13;;;;;;;6.88;4.50;;;;;;;;;;10275868;28;20077;-62
2022/05/28 17:23:12;;;;;;;9.10;5.10;;;;;;;;;;10280882;28;20056;-62
2022/05/28 17:28:10;;;;;;;18.35;12.88;;;;;;;;;;10281045;28;20060;-62
2022/05/28 17:33:11;;;;;;;16.17;7.13;;;;;;;;;;10280866;28;20088;-62
2022/05/28 17:38:12;;;;;;;16.63;8.73;;;;;;;;;;10280984;28;20045;-62
2022/05/28 17:43:10;;;;;;;15.77;7.95;;;;;;;;;;10269761;28;20310;-62
2022/05/28 17:48:12;;;;;;;11.95;6.93;;;;;;;;;;10278091;28;20041;-62
2022/05/28 17:53:11;;;;;;;17.30;6.40;;;;;;;;;;10278702;28;20566;-62
2022/05/28 17:58:10;;;;;;;14.00;8.55;;;;;;;;;;10279064;28;20083;-62
2022/05/28 18:03:08;;;;;;;19.40;11.52;;;;;;;;;;10278173;28;20068;-62
2022/05/28 18:08:06;;;;;;;14.75;7.20;;;;;;;;;;10275875;28;20045;-62
2022/05/28 18:13:06;;;;;;;15.40;6.13;;;;;;;;;;10273009;28;20510;-62
2022/05/28 18:18:05;;;;;;;15.32;4.43;;;;;;;;;;10276656;28;20077;-62
2022/05/28 18:23:05;;;;;;;7.88;4.03;;;;;;;;;;10275355;28;20079;-62
2022/05/28 18:28:03;;;;;;;12.60;5.43;;;;;;;;;;10271745;28;20081;-62
2022/05/28 18:33:03;;;;;;;11.95;5.72;;;;;;;;;;10270541;28;20088;-62
2022/05/28 18:38:02;;;;;;;9.63;4.50;;;;;;;;;;10273057;28;20072;-62
2022/05/28 18:43:00;;;;;;;10.60;4.53;;;;;;;;;;10277135;28;20076;-62
2022/05/28 18:47:59;;;;;;;6.18;3.50;;;;;;;;;;10277979;28;20524;-62
2022/05/28 18:58:11;;;;;;;9.45;4.05;;;;;;;;;;10276726;28;20056;-62
2022/05/28 19:03:11;;;;;;;25.02;14.90;;;;;;;;;;10277616;28;20081;-62
2022/05/28 19:08:12;;;;;;;10.90;4.93;;;;;;;;;;10277380;28;20508;-62
2022/05/28 19:13:11;;;;;;;11.93;4.63;;;;;;;;;;10277054;28;20072;-62
2022/05/28 19:18:09;;;;;;;15.15;5.15;;;;;;;;;;10276903;28;20045;-62
2022/05/28 19:23:07;;;;;;;21.65;7.43;;;;;;;;;;10277084;28;20053;-61
2022/05/28 19:28:07;;;;;;;11.13;4.30;;;;;;;;;;10276080;28;20495;-61
2022/05/28 19:33:07;;;;;;;8.10;4.10;;;;;;;;;;10276297;28;20087;-62
2022/05/28 19:38:05;;;;;;;9.70;4.20;;;;;;;;;;10276761;28;20080;-62
2022/05/28 19:43:04;;;;;;;12.00;4.47;;;;;;;;;;10276289;28;20037;-62
2022/05/28 19:48:05;;;;;;;6.05;3.40;;;;;;;;;;10275931;28;20041;-62
2022/05/28 19:53:04;;;;;;;5.90;3.65;;;;;;;;;;10276435;28;20107;-61
2022/05/28 19:58:03;;;;;;;11.32;3.53;;;;;;;;;;10275569;28;20052;-62
2022/05/28 20:03:01;;;;;;;6.35;4.00;;;;;;;;;;10276094;28;20045;-61
2022/05/28 20:08:01;;;;;;;5.53;3.13;;;;;;;;;;10274684;28;20516;-62
2022/05/28 20:12:59;;;;;;;7.40;3.67;;;;;;;;;;10271009;28;20461;-62
2022/05/28 20:17:59;;;;;;;5.00;3.10;;;;;;;;;;10288369;28;20064;-62
2022/05/28 20:22:57;;;;;;;7.47;3.30;;;;;;;;;;10269972;28;20085;-60
2022/05/28 20:27:57;;;;;;;10.27;5.00;;;;;;;;;;10273099;28;20081;-59
2022/05/28 20:32:55;;;;;;;10.82;3.72;;;;;;;;;;10274887;28;20087;-61
2022/05/28 20:37:53;;;;;;;8.35;3.85;;;;;;;;;;10275277;28;20467;-60
2022/05/28 20:42:52;;;;;;;10.63;3.78;;;;;;;;;;10281522;28;20080;-61
2022/05/28 20:47:53;;;;;;;6.47;4.15;;;;;;;;;;10282893;28;20088;-61
2022/05/28 20:53:16;;;;;;;6.97;3.28;;;;;;;;;;10282473;28;20084;-60
2022/05/28 20:58:14;;;;;;;7.00;3.70;;;;;;;;;;10282264;28;20048;-61
2022/05/28 21:03:14;;;;;;;5.68;3.65;;;;;;;;;;10281237;28;20395;-60
2022/05/28 21:08:13;;;;;;;6.20;3.50;;;;;;;;;;10282665;28;20049;-60
2022/05/28 21:13:11;;;;;;;6.13;3.75;;;;;;;;;;10281817;28;20072;-61
2022/05/28 21:18:10;;;;;;;7.05;3.78;;;;;;;;;;10281489;28;20797;-61
2022/05/28 21:23:10;;;;;;;7.05;4.45;;;;;;;;;;10281393;28;20514;-61
2022/05/28 21:33:24;;;;;;;4.53;3.30;;;;;;;;;;10279756;28;20088;-62
2022/05/28 21:38:24;;;;;;;7.93;3.65;;;;;;;;;;10279677;28;20080;-61
2022/05/28 21:43:22;;;;;;;6.10;3.65;;;;;;;;;;10279702;28;20078;-61
2022/05/28 21:48:21;;;;;;;4.38;3.45;;;;;;;;;;10279669;28;20696;-60
2022/05/28 21:53:19;;;;;;;4.70;3.63;;;;;;;;;;10279403;28;20083;-61
2022/05/28 21:58:19;;;;;;;5.63;3.50;;;;;;;;;;10279856;28;20556;-62
2022/05/28 22:03:20;;;;;;;6.13;3.70;;;;;;;;;;10278059;28;20088;-61
2022/05/28 22:08:18;;;;;;;5.75;3.40;;;;;;;;;;10278465;28;20060;-61
2022/05/28 22:13:17;;;;;;;4.65;3.50;;;;;;;;;;10278228;28;20099;-61
2022/05/28 22:18:17;;;;;;;4.75;3.03;;;;;;;;;;10275181;28;20510;-62
2022/05/28 22:23:15;;;;;;;3.97;2.97;;;;;;;;;;10278631;28;20474;-61
2022/05/28 22:28:14;;;;;;;4.80;3.42;;;;;;;;;;10277831;28;20053;-61
2022/05/28 22:33:12;;;;;;;7.63;3.35;;;;;;;;;;10278120;28;20072;-61
2022/05/28 22:38:13;;;;;;;6.07;3.38;;;;;;;;;;10278421;28;20059;-61
2022/05/28 22:43:11;;;;;;;6.03;3.13;;;;;;;;;;10277830;28;20083;-61
2022/05/28 22:48:19;;;;;;;5.63;3.80;;;;;;;;;;10278120;28;20048;-61
2022/05/28 22:53:20;;;;;;;6.38;3.50;;;;;;;;;;10277673;28;20119;-62
2022/05/28 22:58:18;;;;;;;7.25;3.90;;;;;;;;;;10277393;28;20048;-61
2022/05/28 23:03:18;;;;;;;7.05;4.03;;;;;;;;;;10276566;28;20041;-61
2022/05/28 23:08:17;;;;;;;6.75;3.78;;;;;;;;;;10276947;28;20501;-61
2022/05/28 23:13:17;;;;;;;6.95;3.95;;;;;;;;;;10276643;28;20081;-61
2022/05/28 23:18:24;;;;;;;6.68;3.88;;;;;;;;;;10276652;28;20052;-61
2022/05/28 23:28:41;;;;;;;4.57;3.65;;;;;;;;;;10275682;28;20064;-61
2022/05/28 23:33:41;;;;;;;5.05;3.88;;;;;;;;;;10276452;28;20466;-60
2022/05/28 23:38:40;;;;;;;7.03;3.65;;;;;;;;;;10276445;28;20049;-62
2022/05/28 23:43:38;;;;;;;8.32;5.18;;;;;;;;;;10276036;28;20036;-62
2022/05/28 23:48:40;;;;;;;9.23;4.75;;;;;;;;;;10275918;28;20041;-60
2022/05/28 23:53:39;;;;;;;6.43;4.05;;;;;;;;;;10275850;28;20076;-62
2022/05/28 23:58:37;;;;;;;6.40;4.97;;;;;;;;;;10275225;28;20044;-60
